Time;durP1;ratioP1;P1;durP2;ratioP2;P2;SDS_P1;SDS_P2;PMS_P1;PMS_P2;Temp;Humidity;BMP_temperature;BMP_pressure;BME280_temperature;BME280_humidity;BME280_pressure;Samples;Min_cycle;Max_cycle;Signal;HPM_P1;HPM_P2
2022/10/07 11:23:21;;;;;;;;;;;;;;;;;;7257733;19;1343;-87
2022/10/07 11:25:52;;;;;;;;;;;;;;;;;;7257124;19;1444;-90
2022/10/07 11:28:23;;;;;;;;;;;;;;;;;;7257102;19;1515;-89
2022/10/07 11:30:57;;;;;;;;;;;;;;;;;;7257606;19;1209;-89
2022/10/07 11:33:30;;;;;;;;;;;;;;;;;;7257462;19;1279;-88
2022/10/07 11:36:02;;;;;;;;;;;;;;;;;;7257642;19;1222;-90
2022/10/07 11:38:36;;;;;;;;;;;;;;;;;;7257553;19;1503;-89
2022/10/07 11:41:09;;;;;;;;;;;;;;;;;;7257169;19;1827;-89
2022/10/07 11:43:43;;;;;;;;;;;;;;;;;;7257260;19;1444;-90
2022/10/07 11:46:16;;;;;;;;;;;;;;;;;;7257346;19;1499;-90
2022/10/07 11:48:48;;;;;;;;;;;;;;;;;;7257912;19;1229;-89
2022/10/07 11:51:22;;;;;;;;;;;;;;;;;;7257981;19;1135;-90
2022/10/07 11:53:54;;;;;;;;;;;;;;;;;;7257738;19;1300;-89
2022/10/07 11:56:25;;;;;;;;;;;;;;;;;;7257257;19;1591;-90
2022/10/07 11:59:01;;;;;;;;;;;;;;;;;;7257038;19;1465;-90
2022/10/07 12:01:41;;;;;;;;;;;;;;;;;;7257093;19;1844;-89
2022/10/07 12:04:37;;;;;;;;;;;;;;;;;;7257077;19;1557;-89
2022/10/07 12:07:20;;;;;;;;;;;;;;;;;;7255265;19;1323;-90
2022/10/07 12:10:12;;;;;;;;;;;;;;;;;;7256740;19;1320;-90
2022/10/07 12:12:48;;;;;;;;;;;;;;;;;;7256621;19;1449;-90
2022/10/07 12:15:26;;;;;;;;;;;;;;;;;;7255844;19;1518;-90
2022/10/07 12:17:57;;;;;;;;;;;;;;;;;;7253242;19;1332;-89
2022/10/07 12:20:45;;;;;;;;;;;;;;;;;;7256499;19;1555;-86
2022/10/07 12:23:29;;;;;;;;;;;;;;;;;;7256668;19;1831;-87
2022/10/07 12:26:02;;;;;;;;;;;;;;;;;;7259998;19;1601;-89
2022/10/07 12:28:33;;;;;;;;;;;;;;;;;;7260784;19;1557;-89
2022/10/07 12:31:03;;;;;;;;;;;;;;;;;;7262835;19;1313;-92
2022/10/07 12:33:41;;;;;;;;;;;;;;;;;;7247448;19;1556;-93
2022/10/07 12:36:24;;;;;;;;;;;;;;;;;;7236975;19;1479;-85
2022/10/07 12:39:27;;;;;;;;;;;;;;;;;;7237044;19;1426;-90
2022/10/07 12:41:59;;;;;;;;;;;;;;;;;;7232068;19;1869;-78
2022/10/07 12:44:29;;;;;;;;;;;;;;;;;;7225979;19;1303;-78
2022/10/07 12:46:59;;;;;;;;;;;;;;;;;;7225468;19;1998;-77
2022/10/07 12:49:32;;;;;;;;;;;;;;;;;;7183827;19;40038;-77
2022/10/07 12:52:04;;;;;;;;;;;;;;;;;;7220635;19;1148;-76
2022/10/07 12:54:34;;;;;;;;;;;;;;;;;;7224199;19;1312;-78
2022/10/07 12:57:12;;;;;;;;;;;;;;;;;;7224827;19;977;-76
2022/10/07 12:59:46;;;;;;;;;;;;;;;;;;7215251;19;43167;-76
2022/10/07 13:02:40;;;;;;;;;;;;;;;;;;7220707;19;39469;-76
2022/10/07 13:05:23;;;;;;;;;;;;;;;;;;7222574;19;1046;-76
2022/10/07 13:08:07;;;;;;;;;;;;;;;;;;7218201;19;2141;-76
2022/10/07 13:10:50;;;;;;;;;;;;;;;;;;7223877;19;1332;-77
2022/10/07 13:13:23;;;;;;;;;;;;;;;;;;7223926;19;1315;-77
2022/10/07 13:15:51;;;;;;;;;;;;;;;;;;7223647;19;1625;-77
2022/10/07 13:18:22;;;;;;;;;;;;;;;;;;7223602;19;1022;-77
2022/10/07 13:21:08;;;;;;;;;;;;;;;;;;7219000;19;30650;-76
2022/10/07 13:23:36;;;;;;;;;;;;;;;;;;7222918;19;1834;-78
2022/10/07 13:26:05;;;;;;;;;;;;;;;;;;7219590;19;1518;-77
2022/10/07 13:28:39;;;;;;;;;;;;;;;;;;7220694;19;1449;-82
2022/10/07 13:31:15;;;;;;;;;;;;;;;;;;7157962;19;1228829;-79
2022/10/07 13:33:29;;;;;;;;;;;;;;;;;;1501979;19;1388;-80
2022/10/07 13:34:13;;;;;;;;;;;;;;;;;;1500455;19;1334;-78
2022/10/07 13:34:47;;;;;;;;;;;;;;;;;;1500221;19;926;-78
2022/10/07 13:35:22;;;;;;;;;;;;;;;;;;1500151;19;1049;-79
2022/10/07 13:36:07;;;;;;;;;;;;;;;;;;1500596;19;1424;-78
2022/10/07 13:36:43;;;;;;;;;;;;;;;;;;1500836;19;950;-78
2022/10/07 13:37:24;;;;;;;;;;;;;;;;;;1500941;19;997;-78
2022/10/07 13:37:54;;;;;;;;;;;;;;;;;;1445810;19;1005445;-78
2022/10/07 13:38:29;;;;;;;;;;;;;;;;;;1500919;19;1115;-79
2022/10/07 13:39:09;;;;;;;;;;;;;;;;;;1500791;19;1037;-78
2022/10/07 13:39:43;;;;;;;;;;;;;;;;;;1500757;19;1134;-81
2022/10/07 13:40:20;;;;;;;;;;;;;;;;;;1500850;19;934;-78
2022/10/07 13:40:57;;;;;;;;;;;;;;;;;;1500746;19;1017;-79
2022/10/07 13:41:31;;;;;;;;;;;;;;;;;;1501165;19;1001;-78
2022/10/07 13:42:02;;;;;;;;;;;;;;;;;;1500634;19;1010;-78
2022/10/07 13:42:34;;;;;;;;;;;;;;;;;;1500559;19;1252;-78
2022/10/07 13:43:08;;;;;;;;;;;;;;;;;;1500605;19;912;-78
2022/10/07 13:43:41;;;;;;;;;;;;;;;;;;1500627;19;994;-78
2022/10/07 13:44:13;;;;;;;;;;;;;;;;;;1500882;19;913;-78
2022/10/07 13:44:46;;;;;;;;;;;;;;;;;;1500747;19;1002;-78
2022/10/07 13:45:17;;;;;;;;;;;;;;;;;;1500658;19;1073;-77
2022/10/07 13:45:47;;;;;;;;;;;;;;;;;;1500639;19;1010;-78
2022/10/07 13:46:22;;;;;;;;;;;;;;;;;;1500696;19;945;-78
2022/10/07 13:46:54;;;;;;;;;;;;;;;;;;1500645;19;996;-78
2022/10/07 13:47:31;;;;;;;;;;;;;;;;;;1500495;19;1057;-77
2022/10/07 13:48:01;;;;;;;;;;;;;;;;;;1500705;19;985;-78
2022/10/07 13:48:37;;;;;;;;;;;;;;;;;;1500811;19;927;-79
2022/10/07 13:49:20;;;;;;;;;;;;;;;;;;1501083;19;941;-78
2022/10/07 13:49:52;;;;;;;;;;;;;;;;;;1500799;19;966;-78
2022/10/07 13:50:25;;;;;;;;;;;;;;;;;;1501050;19;985;-79
2022/10/07 13:51:00;;;;;;;;;;;;;;;;;;1500899;19;986;-80
2022/10/07 13:51:32;;;;;;;;;;;;;;;;;;1500708;19;973;-80
2022/10/07 13:52:07;;;;;;;;;;;;;;;;;;1500964;19;978;-77
2022/10/07 13:52:39;;;;;;;;;;;;;;;;;;1500527;19;1541;-80
2022/10/07 13:53:18;;;;;;;;;;;;;;;;;;1500712;19;1847;-83
2022/10/07 13:53:57;;;;;;;;;;;;;;;;;;1500562;19;963;-79
2022/10/07 13:54:29;;;;;;;;;;;;;;;;;;1500870;19;971;-79
2022/10/07 13:55:02;;;;;;;;;;;;;;;;;;1500526;19;939;-79
2022/10/07 13:55:34;;;;;;;;;;;;;;;;;;1500931;19;927;-82
2022/10/07 13:56:07;;;;;;;;;;;;;;;;;;1500901;19;946;-84
2022/10/07 13:56:41;;;;;;;;;;;;;;;;;;1500308;19;1303;-78
2022/10/07 13:57:12;;;;;;;;;;;;;;;;;;1500774;19;1022;-82
2022/10/07 13:57:43;;;;;;;;;;;;;;;;;;1500585;19;982;-79
2022/10/07 13:58:17;;;;;;;;;;;;;;;;;;1500679;19;979;-81
2022/10/07 13:58:48;;;;;;;;;;;;;;;;;;1500808;19;1551;-82
2022/10/07 13:59:22;;;;;;;;;;;;;;;;;;1500607;19;1211;-77
2022/10/07 13:59:52;;;;;;;;;;;;;;;;;;1500605;19;1057;-76
2022/10/07 14:00:23;;;;;;;;;;;;;;;;;;1500627;19;1029;-78
2022/10/07 14:00:57;;;;;;;;;;;;;;;;;;1500829;19;931;-80
2022/10/07 14:01:29;;;;;;;;;;;;;;;;;;1500603;19;1479;-78
2022/10/07 14:02:03;;;;;;;;;;;;;;;;;;1500767;19;1007;-87
2022/10/07 14:02:33;;;;;;;;;;;;;;;;;;1500579;19;1283;-84
2022/10/07 14:03:11;;;;;;;;;;;;;;;;;;1500339;19;1220;-79
2022/10/07 14:04:00;;;;;;;;;;;;;;;;;;1500461;19;1436;-78
2022/10/07 14:04:34;;;;;;;;;;;;;;;;;;1500614;19;1049;-81
2022/10/07 14:05:07;;;;;;;;;;;;;;;;;;1500433;19;923;-78
2022/10/07 14:05:45;;;;;;;;;;;;;;;;;;1500593;19;950;-79
2022/10/07 14:06:34;;;;;;;;;;;;;;;;;;1500406;19;982;-79
2022/10/07 14:07:10;;;;;;;;;;;;;;;;;;1500658;19;927;-79
2022/10/07 14:07:41;;;;;;;;;;;;;;;;;;1500727;19;993;-84
2022/10/07 14:08:13;;;;;;;;;;;;;;;;;;1500598;19;1078;-78
2022/10/07 14:08:52;;;;;;;;;;;;;;;;;;1500965;19;954;-78
2022/10/07 14:09:25;;;;;;;;;;;;;;;;;;1500519;19;953;-83
2022/10/07 14:10:03;;;;;;;;;;;;;;;;;;1500968;19;1022;-76
2022/10/07 14:10:34;;;;;;;;;;;;;;;;;;1500855;19;970;-77
2022/10/07 14:11:06;;;;;;;;;;;;;;;;;;1500617;19;1053;-79
2022/10/07 14:11:40;;;;;;;;;;;;;;;;;;1500951;19;1003;-77
2022/10/07 14:12:13;;;;;;;;;;;;;;;;;;1501217;19;1080;-79
2022/10/07 14:12:48;;;;;;;;;;;;;;;;;;1500840;19;1259;-82
2022/10/07 14:13:19;;;;;;;;;;;;;;;;;;1500738;19;1850;-79
2022/10/07 14:13:49;;;;;;;;;;;;;;;;;;1501055;19;1022;-80
2022/10/07 14:14:22;;;;;;;;;;;;;;;;;;1500777;19;974;-79
2022/10/07 14:14:57;;;;;;;;;;;;;;;;;;1500684;19;1006;-78
2022/10/07 14:15:28;;;;;;;;;;;;;;;;;;1500502;19;1069;-78
2022/10/07 14:15:59;;;;;;;;;;;;;;;;;;1500502;19;958;-79
2022/10/07 14:16:33;;;;;;;;;;;;;;;;;;1500388;19;911;-79
2022/10/07 14:17:07;;;;;;;;;;;;;;;;;;1500512;19;936;-79
2022/10/07 14:17:42;;;;;;;;;;;;;;;;;;1500691;19;965;-79
2022/10/07 14:18:13;;;;;;;;;;;;;;;;;;1500559;19;994;-79
2022/10/07 14:18:44;;;;;;;;;;;;;;;;;;1498002;19;25154;-79
2022/10/07 14:19:18;;;;;;;;;;;;;;;;;;1500562;19;1037;-78
2022/10/07 14:19:54;;;;;;;;;;;;;;;;;;1478296;19;23333;-79
2022/10/07 14:20:29;;;;;;;;;;;;;;;;;;1500322;19;1006;-82
2022/10/07 14:21:06;;;;;;;;;;;;;;;;;;1356662;19;2131584;-79
2022/10/07 14:21:39;;;;;;;;;;;;;;;;;;1469925;19;146445;-78
2022/10/07 14:22:18;;;;;;;;;;;;;;;;;;1406055;19;29003;-91
2022/10/07 14:22:49;;;;;;;;;;;;;;;;;;1474223;19;26519;-80
2022/10/07 14:23:27;;;;;;;;;;;;;;;;;;1499861;19;928;-77
2022/10/07 14:24:06;;;;;;;;;;;;;;;;;;1499907;19;1002;-87
2022/10/07 14:24:37;;;;;;;;;;;;;;;;;;1500120;19;948;-79
2022/10/07 14:25:19;;;;;;;;;;;;;;;;;;1500612;19;973;-81
2022/10/07 14:25:52;;;;;;;;;;;;;;;;;;1500908;19;965;-90
2022/10/07 14:26:40;;;;;;;;;;;;;;;;;;1500583;19;922;-81
2022/10/07 14:27:28;;;;;;;;;;;;;;;;;;1500530;19;950;-78
2022/10/07 14:28:07;;;;;;;;;;;;;;;;;;1500159;19;1549;-78
2022/10/07 14:28:41;;;;;;;;;;;;;;;;;;1500331;19;1042;-78
2022/10/07 14:29:22;;;;;;;;;;;;;;;;;;1500585;19;1022;-78
2022/10/07 14:29:52;;;;;;;;;;;;;;;;;;1500929;19;891;-79
2022/10/07 14:30:27;;;;;;;;;;;;;;;;;;1500113;19;1033;-77
2022/10/07 14:35:32;;;;;;;;;;;;;;;;;;1496338;19;49785;-87
2022/10/07 14:36:10;;;;;;;;;;;;;;;;;;1500137;19;1572;-88
2022/10/07 14:36:55;;;;;;;;;;;;;;;;;;1501502;19;1510;-89
2022/10/07 14:37:28;;;;;;;;;;;;;;;;;;1497174;19;56341;-86
2022/10/07 14:38:14;;;;;;;;;;;;;;;;;;1477800;19;49161;-87
2022/10/07 14:38:46;;;;;;;;;;;;;;;;;;1500126;19;1442;-86
2022/10/07 14:39:32;;;;;;;;;;;;;;;;;;1500849;19;1552;-86
2022/10/07 14:40:14;;;;;;;;;;;;;;;;;;1501290;19;1477;-87
2022/10/07 14:40:48;;;;;;;;;;;;;;;;;;1501191;19;1443;-87
2022/10/07 14:41:21;;;;;;;;;;;;;;;;;;1500899;19;1478;-87
2022/10/07 14:41:55;;;;;;;;;;;;;;;;;;1501420;19;1435;-88
2022/10/07 14:42:28;;;;;;;;;;;;;;;;;;1501464;19;1591;-88
2022/10/07 14:44:04;;;;;;;;;;;;;;;;;;1500184;19;1294;-89
2022/10/07 14:44:34;;;;;;;;;;;;;;;;;;1495356;19;1528;-86
2022/10/07 14:45:06;;;;;;;;;;;;;;;;;;1496822;19;970;-87
2022/10/07 14:45:40;;;;;;;;;;;;;;;;;;1497135;19;1565;-86
2022/10/07 14:46:17;;;;;;;;;;;;;;;;;;1496957;19;1414;-85
2022/10/07 14:46:49;;;;;;;;;;;;;;;;;;1496505;19;1299;-86
2022/10/07 14:47:23;;;;;;;;;;;;;;;;;;1496773;19;1544;-85
2022/10/07 14:47:54;;;;;;;;;;;;;;;;;;1497210;19;1555;-86
2022/10/07 14:48:25;;;;;;;;;;;;;;;;;;1497249;19;1481;-87
2022/10/07 14:49:00;;;;;;;;;;;;;;;;;;1496691;19;1496;-86
2022/10/07 14:49:30;;;;;;;;;;;;;;;;;;1497116;19;1562;-85
2022/10/07 14:50:01;;;;;;;;;;;;;;;;;;1496923;19;1421;-87
2022/10/07 14:50:38;;;;;;;;;;;;;;;;;;1497275;19;1460;-86
2022/10/07 14:51:09;;;;;;;;;;;;;;;;;;1496879;19;1578;-85
2022/10/07 14:51:45;;;;;;;;;;;;;;;;;;1496531;19;1329;-85
2022/10/07 14:52:18;;;;;;;;;;;;;;;;;;1496879;19;1510;-85
2022/10/07 14:52:50;;;;;;;;;;;;;;;;;;1496751;19;1465;-87
2022/10/07 14:53:23;;;;;;;;;;;;;;;;;;1497068;19;1830;-84
2022/10/07 14:53:55;;;;;;;;;;;;;;;;;;1496444;19;1477;-86
2022/10/07 14:54:26;;;;;;;;;;;;;;;;;;1496550;19;1376;-85
2022/10/07 14:55:01;;;;;;;;;;;;;;;;;;1496607;19;1425;-86
2022/10/07 14:55:32;;;;;;;;;;;;;;;;;;1497048;19;1496;-86
2022/10/07 14:56:10;;;;;;;;;;;;;;;;;;1496399;19;1485;-86
2022/10/07 14:56:44;;;;;;;;;;;;;;;;;;1496712;19;1517;-86
2022/10/07 14:57:14;;;;;;;;;;;;;;;;;;1496771;19;1464;-85
2022/10/07 14:57:52;;;;;;;;;;;;;;;;;;1496568;19;1547;-87
2022/10/07 14:58:24;;;;;;;;;;;;;;;;;;1496145;19;1497;-85
2022/10/07 14:58:55;;;;;;;;;;;;;;;;;;1496573;19;1318;-84
2022/10/07 14:59:30;;;;;;;;;;;;;;;;;;1496645;19;1407;-85
2022/10/07 15:00:06;;;;;;;;;;;;;;;;;;1496696;19;1370;-85
2022/10/07 15:00:39;;;;;;;;;;;;;;;;;;1496015;19;1530;-85
2022/10/07 15:01:15;;;;;;;;;;;;;;;;;;1496351;19;1582;-85
2022/10/07 15:01:46;;;;;;;;;;;;;;;;;;1496353;19;1555;-85
2022/10/07 15:02:17;;;;;;;;;;;;;;;;;;1496615;19;1550;-84
2022/10/07 15:02:53;;;;;;;;;;;;;;;;;;1496148;19;1453;-85
2022/10/07 15:03:24;;;;;;;;;;;;;;;;;;1496277;19;1499;-84
2022/10/07 15:03:54;;;;;;;;;;;;;;;;;;1496439;19;1482;-84
2022/10/07 15:04:28;;;;;;;;;;;;;;;;;;1496702;19;1522;-85
2022/10/07 15:04:58;;;;;;;;;;;;;;;;;;1496596;19;1541;-84
2022/10/07 15:05:31;;;;;;;;;;;;;;;;;;1496333;19;1602;-87
2022/10/07 15:06:10;;;;;;;;;;;;;;;;;;1496306;19;1582;-85
2022/10/07 15:06:41;;;;;;;;;;;;;;;;;;1496399;19;1456;-85
2022/10/07 15:07:12;;;;;;;;;;;;;;;;;;1496536;19;1517;-86
2022/10/07 15:07:46;;;;;;;;;;;;;;;;;;1496047;19;1560;-84
2022/10/07 15:08:17;;;;;;;;;;;;;;;;;;1496285;19;1639;-86
2022/10/07 15:08:48;;;;;;;;;;;;;;;;;;1496420;19;1544;-85
2022/10/07 15:09:21;;;;;;;;;;;;;;;;;;1496623;19;1365;-84
2022/10/07 15:09:52;;;;;;;;;;;;;;;;;;1495401;19;1760;-86
2022/10/07 15:10:25;;;;;;;;;;;;;;;;;;1496181;19;1722;-85
2022/10/07 15:10:58;;;;;;;;;;;;;;;;;;1496505;19;1598;-85
2022/10/07 15:11:31;;;;;;;;;;;;;;;;;;1496597;19;1663;-85
2022/10/07 15:12:01;;;;;;;;;;;;;;;;;;1496512;19;1110;-85
2022/10/07 15:12:35;;;;;;;;;;;;;;;;;;1496316;19;1455;-85
2022/10/07 15:13:10;;;;;;;;;;;;;;;;;;1496552;19;1337;-86
2022/10/07 15:13:41;;;;;;;;;;;;;;;;;;1496259;19;1867;-85
2022/10/07 15:14:15;;;;;;;;;;;;;;;;;;1496355;19;1453;-85
2022/10/07 15:14:45;;;;;;;;;;;;;;;;;;1496389;19;1583;-86
2022/10/07 15:15:17;;;;;;;;;;;;;;;;;;1496431;19;1434;-85
2022/10/07 15:15:51;;;;;;;;;;;;;;;;;;1496331;19;1475;-86
2022/10/07 15:16:25;;;;;;;;;;;;;;;;;;1496474;19;1610;-86
2022/10/07 15:16:59;;;;;;;;;;;;;;;;;;1496571;19;1301;-87
2022/10/07 15:17:30;;;;;;;;;;;;;;;;;;1496564;19;1575;-87
2022/10/07 15:18:02;;;;;;;;;;;;;;;;;;1496377;19;1611;-87
2022/10/07 15:18:38;;;;;;;;;;;;;;;;;;1496204;19;1582;-86
2022/10/07 15:19:09;;;;;;;;;;;;;;;;;;1496594;19;1483;-86
2022/10/07 15:19:40;;;;;;;;;;;;;;;;;;1496965;19;1353;-86
2022/10/07 15:20:18;;;;;;;;;;;;;;;;;;1496467;19;1651;-86
2022/10/07 15:20:53;;;;;;;;;;;;;;;;;;1496039;19;1534;-85
2022/10/07 15:21:30;;;;;;;;;;;;;;;;;;1496897;19;1398;-86
2022/10/07 15:22:01;;;;;;;;;;;;;;;;;;1496944;19;1615;-92
2022/10/07 15:22:31;;;;;;;;;;;;;;;;;;1496227;19;1559;-85
2022/10/07 15:23:09;;;;;;;;;;;;;;;;;;1495754;19;1534;-84
2022/10/07 15:23:48;;;;;;;;;;;;;;;;;;1496080;19;1513;-83
2022/10/07 15:24:21;;;;;;;;;;;;;;;;;;1496696;19;1064;-85
2022/10/07 15:24:52;;;;;;;;;;;;;;;;;;1495978;19;920;-76
2022/10/07 15:25:22;;;;;;;;;;;;;;;;;;1494388;19;987;-77
2022/10/07 15:25:56;;;;;;;;;;;;;;;;;;1495595;19;1029;-76
2022/10/07 15:26:27;;;;;;;;;;;;;;;;;;1495525;19;998;-77
2022/10/07 15:27:01;;;;;;;;;;;;;;;;;;1495377;19;1511;-77
2022/10/07 15:27:31;;;;;;;;;;;;;;;;;;1494480;19;970;-76
2022/10/07 15:28:02;;;;;;;;;;;;;;;;;;1495527;19;882;-76
2022/10/07 15:28:36;;;;;;;;;;;;;;;;;;1495329;19;920;-76
2022/10/07 15:29:07;;;;;;;;;;;;;;;;;;1493237;19;1606;-76
2022/10/07 15:29:38;;;;;;;;;;;;;;;;;;1495103;19;1412;-76
2022/10/07 15:30:13;;;;;;;;;;;;;;;;;;1495189;19;1377;-76
2022/10/07 15:30:43;;;;;;;;;;;;;;;;;;1495008;19;1217;-76
2022/10/07 15:31:17;;;;;;;;;;;;;;;;;;1495283;19;1657;-76
2022/10/07 15:31:50;;;;;;;;;;;;;;;;;;1495104;19;994;-74
2022/10/07 15:32:21;;;;;;;;;;;;;;;;;;1495023;19;953;-74
2022/10/07 15:32:56;;;;;;;;;;;;;;;;;;1494914;19;1063;-74
2022/10/07 15:33:26;;;;;;;;;;;;;;;;;;1495281;19;1467;-75
2022/10/07 15:33:57;;;;;;;;;;;;;;;;;;1495089;19;1874;-74
2022/10/07 15:34:30;;;;;;;;;;;;;;;;;;1495591;19;930;-75
2022/10/07 15:35:01;;;;;;;;;;;;;;;;;;1495173;19;984;-75
2022/10/07 15:35:34;;;;;;;;;;;;;;;;;;1495600;19;942;-75
2022/10/07 15:36:08;;;;;;;;;;;;;;;;;;1495278;19;962;-75
2022/10/07 15:36:42;;;;;;;;;;;;;;;;;;1495564;19;987;-75
2022/10/07 15:37:13;;;;;;;;;;;;;;;;;;1495168;19;967;-75
2022/10/07 15:37:47;;;;;;;;;;;;;;;;;;1495231;19;955;-75
2022/10/07 15:38:17;;;;;;;;;;;;;;;;;;1494643;19;1056;-75
2022/10/07 15:38:48;;;;;;;;;;;;;;;;;;1493833;19;1844;-75
2022/10/07 15:39:21;;;;;;;;;;;;;;;;;;1495526;19;1061;-75
2022/10/07 15:39:52;;;;;;;;;;;;;;;;;;1495681;19;953;-75
2022/10/07 15:40:25;;;;;;;;;;;;;;;;;;1494681;19;1184;-75
2022/10/07 15:40:57;;;;;;;;;;;;;;;;;;1494842;19;1786;-75
2022/10/07 15:41:30;;;;;;;;;;;;;;;;;;1493370;19;1723;-75
2022/10/07 15:42:03;;;;;;;;;;;;;;;;;;1494658;19;1424;-75
2022/10/07 15:42:34;;;;;;;;;;;;;;;;;;1494751;19;1224;-75
2022/10/07 15:43:05;;;;;;;;;;;;;;;;;;1495357;19;1428;-74
2022/10/07 15:43:39;;;;;;;;;;;;;;;;;;1495440;19;1084;-77
2022/10/07 15:44:14;;;;;;;;;;;;;;;;;;1495939;19;994;-75
2022/10/07 15:44:49;;;;;;;;;;;;;;;;;;1495644;19;1001;-75
2022/10/07 15:45:20;;;;;;;;;;;;;;;;;;1495652;19;1328;-75
2022/10/07 15:45:51;;;;;;;;;;;;;;;;;;1495609;19;967;-75
2022/10/07 15:46:24;;;;;;;;;;;;;;;;;;1495636;19;958;-74
2022/10/07 15:46:55;;;;;;;;;;;;;;;;;;1495470;19;995;-75
2022/10/07 15:47:27;;;;;;;;;;;;;;;;;;1494409;19;1954;-75
2022/10/07 15:48:00;;;;;;;;;;;;;;;;;;1494731;19;959;-76
2022/10/07 15:48:30;;;;;;;;;;;;;;;;;;1495684;19;1001;-75
2022/10/07 15:49:02;;;;;;;;;;;;;;;;;;1495711;19;986;-74
2022/10/07 15:49:35;;;;;;;;;;;;;;;;;;1495361;19;962;-75
2022/10/07 15:50:06;;;;;;;;;;;;;;;;;;1495396;19;1058;-75
2022/10/07 15:50:37;;;;;;;;;;;;;;;;;;1494716;19;955;-75
2022/10/07 15:51:11;;;;;;;;;;;;;;;;;;1495122;19;971;-76
2022/10/07 15:51:45;;;;;;;;;;;;;;;;;;1494287;19;2109;-76
2022/10/07 15:52:16;;;;;;;;;;;;;;;;;;1493868;19;1501;-75
2022/10/07 15:52:50;;;;;;;;;;;;;;;;;;1495284;19;1399;-76
2022/10/07 15:53:21;;;;;;;;;;;;;;;;;;1494812;19;1088;-75
2022/10/07 15:53:51;;;;;;;;;;;;;;;;;;1493124;19;1851;-75
2022/10/07 15:54:25;;;;;;;;;;;;;;;;;;1494467;19;1542;-75
2022/10/07 15:54:55;;;;;;;;;;;;;;;;;;1495013;19;1476;-76
2022/10/07 15:55:26;;;;;;;;;;;;;;;;;;1495004;19;991;-81
2022/10/07 15:55:59;;;;;;;;;;;;;;;;;;1493671;19;1285;-76
2022/10/07 15:56:30;;;;;;;;;;;;;;;;;;1493030;19;1018;-76
2022/10/07 15:57:04;;;;;;;;;;;;;;;;;;1494242;19;986;-75
2022/10/07 15:57:35;;;;;;;;;;;;;;;;;;1494300;19;1034;-76
2022/10/07 15:58:05;;;;;;;;;;;;;;;;;;1494854;19;1467;-89
2022/10/07 15:58:41;;;;;;;;;;;;;;;;;;1494634;19;1367;-91
2022/10/07 15:59:13;;;;;;;;;;;;;;;;;;1495128;19;963;-88
2022/10/07 15:59:44;;;;;;;;;;;;;;;;;;1466656;19;60838;-79
2022/10/07 16:00:18;;;;;;;;;;;;;;;;;;1493844;19;943;-78
2022/10/07 16:00:58;;;;;;;;;;;;;;;;;;1493722;19;1022;-86
2022/10/07 16:01:30;;;;;;;;;;;;;;;;;;1421731;19;46447;-82
2022/10/07 16:02:04;;;;;;;;;;;;;;;;;;1494045;19;1050;-83
2022/10/07 16:02:35;;;;;;;;;;;;;;;;;;1493729;19;1370;-83
2022/10/07 16:03:06;;;;;;;;;;;;;;;;;;1494292;19;935;-86
2022/10/07 16:03:40;;;;;;;;;;;;;;;;;;1494978;19;879;-92
2022/10/07 16:04:11;;;;;;;;;;;;;;;;;;1495533;19;1464;-89
2022/10/07 16:04:46;;;;;;;;;;;;;;;;;;1494302;19;1446;-78
2022/10/07 16:05:16;;;;;;;;;;;;;;;;;;1494516;19;945;-83
2022/10/07 16:05:53;;;;;;;;;;;;;;;;;;1494673;19;1005;-77
2022/10/07 16:06:30;;;;;;;;;;;;;;;;;;1411085;19;28131;-80
2022/10/07 16:07:04;;;;;;;;;;;;;;;;;;1494205;19;1045;-80
2022/10/07 16:07:37;;;;;;;;;;;;;;;;;;1493883;19;1106;-78
2022/10/07 16:08:08;;;;;;;;;;;;;;;;;;1451852;19;25342;-79
2022/10/07 16:08:39;;;;;;;;;;;;;;;;;;1494847;19;1135;-78
2022/10/07 16:09:12;;;;;;;;;;;;;;;;;;1362716;19;1675745;-78
2022/10/07 16:09:43;;;;;;;;;;;;;;;;;;1495667;19;1027;-78
2022/10/07 16:10:16;;;;;;;;;;;;;;;;;;1433548;19;143275;-78
2022/10/07 16:10:47;;;;;;;;;;;;;;;;;;1495514;19;1440;-79
2022/10/07 16:11:18;;;;;;;;;;;;;;;;;;1495363;19;1013;-78
2022/10/07 16:11:51;;;;;;;;;;;;;;;;;;1495937;19;962;-79
2022/10/07 16:12:22;;;;;;;;;;;;;;;;;;1495624;19;1264;-79
2022/10/07 16:12:53;;;;;;;;;;;;;;;;;;1496367;19;1029;-82
2022/10/07 16:13:27;;;;;;;;;;;;;;;;;;1496319;19;1068;-80
2022/10/07 16:13:58;;;;;;;;;;;;;;;;;;1496026;19;1823;-83
2022/10/07 16:14:30;;;;;;;;;;;;;;;;;;1496487;19;946;-85
2022/10/07 16:15:05;;;;;;;;;;;;;;;;;;1495754;19;1532;-83
2022/10/07 16:15:35;;;;;;;;;;;;;;;;;;1495024;19;1172;-82
2022/10/07 16:16:07;;;;;;;;;;;;;;;;;;1495340;19;1483;-82
2022/10/07 16:16:40;;;;;;;;;;;;;;;;;;1496061;19;993;-79
2022/10/07 16:17:11;;;;;;;;;;;;;;;;;;1467180;19;40129;-78
2022/10/07 16:17:45;;;;;;;;;;;;;;;;;;1494979;19;1240;-85
2022/10/07 16:18:16;;;;;;;;;;;;;;;;;;1495224;19;1564;-81
2022/10/07 16:18:47;;;;;;;;;;;;;;;;;;1494914;19;907;-82
2022/10/07 16:19:21;;;;;;;;;;;;;;;;;;1495445;19;942;-81
2022/10/07 16:19:51;;;;;;;;;;;;;;;;;;1495870;19;1488;-81
2022/10/07 16:20:22;;;;;;;;;;;;;;;;;;1469041;19;28413;-81
2022/10/07 16:20:55;;;;;;;;;;;;;;;;;;1495416;19;895;-81
2022/10/07 16:21:28;;;;;;;;;;;;;;;;;;1495219;19;977;-81
2022/10/07 16:22:01;;;;;;;;;;;;;;;;;;1492566;19;26019;-81
2022/10/07 16:22:35;;;;;;;;;;;;;;;;;;1494894;19;1507;-81
2022/10/07 16:23:05;;;;;;;;;;;;;;;;;;1495241;19;959;-80
2022/10/07 16:23:40;;;;;;;;;;;;;;;;;;1495339;19;1154;-82
2022/10/07 16:24:12;;;;;;;;;;;;;;;;;;1494840;19;1506;-82
2022/10/07 16:24:46;;;;;;;;;;;;;;;;;;1496215;19;994;-82
2022/10/07 16:25:16;;;;;;;;;;;;;;;;;;1495951;19;1057;-77
2022/10/07 16:25:47;;;;;;;;;;;;;;;;;;1494744;19;929;-76
2022/10/07 16:26:21;;;;;;;;;;;;;;;;;;1494386;19;1411;-80
2022/10/07 16:26:54;;;;;;;;;;;;;;;;;;1452904;19;27516;-79
2022/10/07 16:30:39;;;;;;;;;;;;;;;;;;1490079;19;29027;-81
2022/10/07 16:31:06;;;;;;;;;;;;;;;;;;1497206;19;1742;-77
2022/10/07 16:31:38;;;;;;;;;;;;;;;;;;1500330;19;1637;-77
2022/10/07 16:32:09;;;;;;;;;;;;;;;;;;1498970;19;1294;-77
2022/10/07 16:32:43;;;;;;;;;;;;;;;;;;1500096;19;1304;-77
2022/10/07 16:33:14;;;;;;;;;;;;;;;;;;1500739;19;1349;-77
2022/10/07 16:33:49;;;;;;;;;;;;;;;;;;1499560;19;1475;-77
2022/10/07 16:34:22;;;;;;;;;;;;;;;;;;1500458;19;955;-76
2022/10/07 16:34:53;;;;;;;;;;;;;;;;;;1500679;19;943;-76
2022/10/07 16:35:23;;;;;;;;;;;;;;;;;;1500570;19;1563;-77
2022/10/07 16:35:57;;;;;;;;;;;;;;;;;;1499603;19;1899;-77
2022/10/07 16:36:28;;;;;;;;;;;;;;;;;;1500762;19;1022;-77
2022/10/07 16:36:58;;;;;;;;;;;;;;;;;;1500645;19;994;-77
2022/10/07 16:37:33;;;;;;;;;;;;;;;;;;1500845;19;1057;-77
2022/10/07 16:38:04;;;;;;;;;;;;;;;;;;1500440;19;1009;-77
2022/10/07 16:38:34;;;;;;;;;;;;;;;;;;1500694;19;987;-77
2022/10/07 16:39:09;;;;;;;;;;;;;;;;;;1499974;19;1555;-78
2022/10/07 16:39:39;;;;;;;;;;;;;;;;;;1500385;19;1866;-77
2022/10/07 16:40:10;;;;;;;;;;;;;;;;;;1500637;19;1045;-77
2022/10/07 16:40:52;;;;;;;;;;;;;;;;;;1500552;19;995;-77
2022/10/07 16:41:23;;;;;;;;;;;;;;;;;;1500729;19;1603;-77
2022/10/07 16:41:55;;;;;;;;;;;;;;;;;;1500519;19;927;-77
2022/10/07 16:42:28;;;;;;;;;;;;;;;;;;1500175;19;1303;-77
2022/10/07 16:42:59;;;;;;;;;;;;;;;;;;1500448;19;995;-78
2022/10/07 16:43:30;;;;;;;;;;;;;;;;;;1500528;19;946;-77
2022/10/07 16:44:04;;;;;;;;;;;;;;;;;;1500509;19;970;-78
2022/10/07 16:44:34;;;;;;;;;;;;;;;;;;1499480;19;1447;-81
2022/10/07 16:45:05;;;;;;;;;;;;;;;;;;1500692;19;997;-79
2022/10/07 16:45:43;;;;;;;;;;;;;;;;;;1499584;19;1029;-82
2022/10/07 16:46:17;;;;;;;;;;;;;;;;;;1499841;19;994;-79
2022/10/07 16:46:48;;;;;;;;;;;;;;;;;;1500647;19;939;-79
2022/10/07 16:47:21;;;;;;;;;;;;;;;;;;1500817;19;951;-80
2022/10/07 16:47:53;;;;;;;;;;;;;;;;;;1500560;19;878;-76
2022/10/07 16:48:24;;;;;;;;;;;;;;;;;;1500613;19;1469;-79
2022/10/07 16:48:59;;;;;;;;;;;;;;;;;;1500833;19;1029;-81
2022/10/07 16:49:29;;;;;;;;;;;;;;;;;;1500767;19;1026;-80
2022/10/07 16:50:00;;;;;;;;;;;;;;;;;;1499818;19;947;-79
2022/10/07 16:50:33;;;;;;;;;;;;;;;;;;1500813;19;1039;-80
2022/10/07 16:51:07;;;;;;;;;;;;;;;;;;1500627;19;984;-77
2022/10/07 16:51:37;;;;;;;;;;;;;;;;;;1500738;19;990;-76
2022/10/07 16:52:11;;;;;;;;;;;;;;;;;;1499716;19;1025;-80
2022/10/07 16:52:42;;;;;;;;;;;;;;;;;;1500593;19;1368;-80
2022/10/07 16:53:12;;;;;;;;;;;;;;;;;;1500633;19;982;-80
2022/10/07 16:53:47;;;;;;;;;;;;;;;;;;1500585;19;931;-81
2022/10/07 16:54:19;;;;;;;;;;;;;;;;;;1500758;19;957;-80
2022/10/07 16:54:52;;;;;;;;;;;;;;;;;;1500608;19;1919;-77
2022/10/07 16:55:24;;;;;;;;;;;;;;;;;;1500464;19;983;-80
2022/10/07 16:55:55;;;;;;;;;;;;;;;;;;1499972;19;1011;-80
2022/10/07 16:56:29;;;;;;;;;;;;;;;;;;1500825;19;938;-79
2022/10/07 16:56:59;;;;;;;;;;;;;;;;;;1500736;19;1010;-81
2022/10/07 16:57:33;;;;;;;;;;;;;;;;;;1500555;19;991;-79
2022/10/07 16:58:03;;;;;;;;;;;;;;;;;;1500630;19;1041;-80
2022/10/07 16:58:36;;;;;;;;;;;;;;;;;;1500519;19;966;-80
2022/10/07 16:59:11;;;;;;;;;;;;;;;;;;1500847;19;966;-78
2022/10/07 16:59:42;;;;;;;;;;;;;;;;;;1500530;19;1317;-79
2022/10/07 17:00:14;;;;;;;;;;;;;;;;;;1500627;19;1834;-80
2022/10/07 17:00:50;;;;;;;;;;;;;;;;;;1499515;19;1075;-78
2022/10/07 17:01:20;;;;;;;;;;;;;;;;;;1500082;19;1229;-77
2022/10/07 17:01:54;;;;;;;;;;;;;;;;;;1499650;19;1010;-79
2022/10/07 17:02:28;;;;;;;;;;;;;;;;;;1500215;19;1205;-80
2022/10/07 17:02:59;;;;;;;;;;;;;;;;;;1499572;19;1013;-77
2022/10/07 17:03:32;;;;;;;;;;;;;;;;;;1500297;19;967;-79
2022/10/07 17:04:03;;;;;;;;;;;;;;;;;;1500544;19;990;-81
2022/10/07 17:04:37;;;;;;;;;;;;;;;;;;1500772;19;975;-79
2022/10/07 17:05:08;;;;;;;;;;;;;;;;;;1498850;19;1923;-80
2022/10/07 17:05:39;;;;;;;;;;;;;;;;;;1500553;19;1040;-80
2022/10/07 17:06:14;;;;;;;;;;;;;;;;;;1500548;19;923;-80